createdAt,value
2023-04-01T00:03:59.102Z,13.88
2023-04-01T00:09:01.738Z,14.46
2023-04-01T00:14:04.250Z,14.88
2023-04-01T00:19:06.741Z,15.24
2023-04-01T00:24:09.328Z,15.39
2023-04-01T00:29:12.193Z,14.21
2023-04-01T00:34:14.694Z,13.32
2023-04-01T00:39:17.619Z,14.24
2023-04-01T00:44:25.857Z,14.83
2023-04-01T00:49:34.125Z,15.22
2023-04-01T00:54:37.095Z,15.55
2023-04-01T00:59:53.562Z,15.82
2023-04-01T01:04:56.005Z,14.74
2023-04-01T01:10:04.662Z,12.97
2023-04-01T01:15:10.313Z,12.73
2023-04-01T01:20:33.987Z,13.71
2023-04-01T01:25:44.963Z,14.08
2023-04-01T01:31:38.076Z,14.22
2023-04-01T01:36:43.563Z,14.06
2023-04-01T01:41:50.313Z,14.22
2023-04-01T01:46:52.899Z,14.32
2023-04-01T01:51:55.446Z,14.41
2023-04-01T01:57:07.032Z,14.30
2023-04-01T02:02:11.913Z,14.19
2023-04-01T02:07:24.546Z,14.41
2023-04-01T02:12:29.740Z,14.46
2023-04-01T02:17:34.971Z,14.41
2023-04-01T02:22:42.842Z,14.41
2023-04-01T02:27:47.103Z,14.40
2023-04-01T02:32:50.150Z,14.33
2023-04-01T02:37:54.806Z,14.26
2023-04-01T02:42:57.343Z,14.35
2023-04-01T02:47:59.850Z,14.51
2023-04-01T02:53:04.648Z,14.51
2023-04-01T02:58:07.420Z,14.51
2023-04-01T03:03:10.733Z,14.62
2023-04-01T03:08:13.541Z,14.62
2023-04-01T03:13:16.086Z,14.72
2023-04-01T03:18:18.818Z,14.74
2023-04-01T03:23:22.059Z,14.59
2023-04-01T03:28:24.534Z,14.40
2023-04-01T03:33:27.027Z,14.20
2023-04-01T03:38:29.577Z,13.91
2023-04-01T03:43:32.071Z,13.78
2023-04-01T03:48:34.618Z,13.61
2023-04-01T03:53:37.206Z,13.57
2023-04-01T03:58:40.021Z,13.43
2023-04-01T04:03:42.657Z,13.56
2023-04-01T04:08:45.462Z,13.58
2023-04-01T04:13:48.923Z,13.48
2023-04-01T04:18:52.359Z,13.37
2023-04-01T04:23:54.927Z,13.41
2023-04-01T04:28:58.317Z,13.30
2023-04-01T04:34:02.236Z,13.45
2023-04-01T04:39:04.831Z,13.48
2023-04-01T04:44:07.454Z,13.45
2023-04-01T04:49:10.064Z,13.51
2023-04-01T04:54:12.552Z,13.63
2023-04-01T04:59:15.067Z,13.55
2023-04-01T05:04:17.655Z,13.49
2023-04-01T05:09:20.473Z,13.36
2023-04-01T05:14:22.984Z,13.41
2023-04-01T05:19:25.649Z,13.42
2023-04-01T05:24:28.173Z,13.40
2023-04-01T05:29:30.737Z,13.46
2023-04-01T05:34:33.290Z,13.36
2023-04-01T05:39:39.477Z,13.40
2023-04-01T05:44:42.073Z,13.28
2023-04-01T05:49:44.728Z,13.28
2023-04-01T05:54:47.280Z,13.12
2023-04-01T05:59:49.836Z,13.30
2023-04-01T06:05:03.250Z,13.32
2023-04-01T06:10:50.196Z,13.16
2023-04-01T06:16:06.683Z,13.14
2023-04-01T06:21:26.786Z,13.15
2023-04-01T06:26:38.408Z,13.28
2023-04-01T06:32:01.748Z,13.23
2023-04-01T06:37:04.268Z,13.37
2023-04-01T06:42:43.980Z,13.45
2023-04-01T06:48:14.952Z,13.50
2023-04-01T06:53:24.820Z,13.40
2023-04-01T06:58:51.443Z,13.41
2023-04-01T07:04:02.970Z,13.42
2023-04-01T07:09:12.855Z,13.32
2023-04-01T07:14:38.304Z,13.20
2023-04-01T07:19:51.678Z,13.17
2023-04-01T07:24:55.016Z,13.07
2023-04-01T07:29:58.400Z,13.09
2023-04-01T07:35:07.648Z,12.85
2023-04-01T07:40:38.964Z,12.82
2023-04-01T07:45:54.570Z,12.91
2023-04-01T07:51:06.497Z,13.17
2023-04-01T07:56:13.949Z,13.19
2023-04-01T08:01:41.688Z,12.93
2023-04-01T08:06:48.880Z,13.02
2023-04-01T08:12:10.302Z,13.03
2023-04-01T08:17:20.278Z,12.88
2023-04-01T08:22:28.785Z,12.96
2023-04-01T08:27:46.118Z,13.17
2023-04-01T08:32:58.071Z,13.04
2023-04-01T08:38:07.571Z,12.86
2023-04-01T08:43:33.201Z,13.00
2023-04-01T08:48:47.509Z,13.18
2023-04-01T08:54:11.562Z,13.29
2023-04-01T08:59:33.352Z,13.40
2023-04-01T09:05:00.701Z,13.21
2023-04-01T09:10:25.402Z,13.41
2023-04-01T09:15:51.176Z,13.90
2023-04-01T09:21:32.180Z,13.98
2023-04-01T09:26:48.430Z,14.31
2023-04-01T09:32:18.588Z,14.47
2023-04-01T09:37:34.834Z,13.51
2023-04-01T09:42:43.742Z,12.65
2023-04-01T09:48:21.720Z,13.56
2023-04-01T09:53:54.028Z,14.15
2023-04-01T09:59:24.443Z,14.19
2023-04-01T10:04:45.357Z,14.27
2023-04-01T10:10:24.993Z,14.22
2023-04-01T10:15:55.520Z,13.45
2023-04-01T10:21:21.792Z,12.42
2023-04-01T10:26:39.632Z,13.18
2023-04-01T10:31:58.872Z,13.40
2023-04-01T10:37:28.056Z,13.94
2023-04-01T10:42:51.850Z,12.77
2023-04-01T10:48:18.791Z,12.36
2023-04-01T10:54:06.482Z,13.02
2023-04-01T10:59:46.331Z,13.53
2023-04-01T11:05:20.852Z,13.85
2023-04-01T11:10:51.558Z,13.90
2023-04-01T11:15:56.939Z,13.62
2023-04-01T11:21:11.435Z,13.84
2023-04-01T11:26:49.370Z,12.22
2023-04-01T11:31:59.789Z,12.67
2023-04-01T11:37:17.637Z,13.25
2023-04-01T11:42:44.947Z,13.65
2023-04-01T11:48:08.220Z,13.74
2023-04-01T11:53:42.799Z,12.78
2023-04-01T11:59:00.393Z,12.78
2023-04-01T12:04:31.447Z,13.17
2023-04-01T12:09:50.548Z,13.47
2023-04-01T12:15:18.762Z,13.57
2023-04-01T12:20:36.522Z,13.43
2023-04-01T12:25:44.944Z,13.60
2023-04-01T12:31:18.161Z,12.59
2023-04-01T12:37:11.326Z,11.57
2023-04-01T12:42:31.833Z,12.55
2023-04-01T12:47:50.481Z,13.21
2023-04-01T12:53:04.094Z,13.22
2023-04-01T12:58:39.829Z,13.30
2023-04-01T13:04:01.983Z,12.67
2023-04-01T13:09:29.298Z,11.68
2023-04-01T13:14:42.358Z,12.75
2023-04-01T13:20:05.760Z,13.17
2023-04-01T13:25:24.197Z,13.43
2023-04-01T13:30:43.272Z,13.45
2023-04-01T13:36:16.850Z,12.59
2023-04-01T13:41:53.816Z,11.38
2023-04-01T13:47:39.986Z,12.09
2023-04-01T13:52:51.252Z,12.25
2023-04-01T13:58:00.586Z,12.68
2023-04-01T14:03:34.934Z,12.70
2023-04-01T14:09:03.804Z,12.36
2023-04-01T14:14:15.595Z,12.47
2023-04-01T14:19:20.915Z,12.50
2023-04-01T14:24:43.007Z,12.60
2023-04-01T14:30:04.472Z,12.35
2023-04-01T14:35:22.861Z,12.32
2023-04-01T14:40:47.032Z,12.35
2023-04-01T14:46:20.502Z,12.15
2023-04-01T14:51:29.062Z,12.05
2023-04-01T14:56:42.753Z,12.09
2023-04-01T15:02:30.716Z,11.92
2023-04-01T15:07:51.862Z,11.72
2023-04-01T15:13:15.703Z,11.77
2023-04-01T15:18:22.711Z,11.43
2023-04-01T15:23:37.141Z,11.37
2023-04-01T15:28:57.810Z,11.28
2023-04-01T15:34:43.414Z,11.36
2023-04-01T15:40:04.268Z,11.31
2023-04-01T15:45:24.793Z,11.09
2023-04-01T15:50:33.474Z,11.21
2023-04-01T15:55:58.211Z,11.13
2023-04-01T16:01:22.156Z,11.12
2023-04-01T16:06:59.025Z,11.14
2023-04-01T16:12:14.978Z,11.10
2023-04-01T16:17:43.606Z,11.30
2023-04-01T16:23:08.266Z,11.20
2023-04-01T16:28:21.134Z,11.13
2023-04-01T16:33:34.165Z,10.87
2023-04-01T16:38:43.999Z,10.96
2023-04-01T16:43:55.322Z,10.86
2023-04-01T16:49:12.934Z,10.73
2023-04-01T16:54:36.635Z,10.69
2023-04-01T16:59:55.610Z,10.66
2023-04-01T17:05:06.363Z,10.21
2023-04-01T17:10:30.480Z,10.24
2023-04-01T17:15:49.151Z,10.29
2023-04-01T17:21:01.364Z,10.26
2023-04-01T17:26:16.321Z,10.35
2023-04-01T17:31:27.583Z,10.40
2023-04-01T17:36:54.066Z,10.45
2023-04-01T17:41:59.616Z,9.83
2023-04-01T17:47:42.876Z,9.55
2023-04-01T17:53:19.798Z,9.73
2023-04-01T17:58:48.991Z,9.91
2023-04-01T18:04:29.225Z,9.86
2023-04-01T18:09:49.895Z,10.01
2023-04-01T18:15:08.337Z,9.79
2023-04-01T18:20:24.764Z,9.79
2023-04-01T18:25:37.096Z,10.04
2023-04-01T18:30:41.143Z,9.76
2023-04-01T18:36:11.681Z,9.67
2023-04-01T18:41:36.687Z,9.70
2023-04-01T18:46:48.944Z,9.83
2023-04-01T18:51:59.574Z,9.88
2023-04-01T18:57:13.925Z,9.77
2023-04-01T19:02:33.607Z,10.08
2023-04-01T19:07:47.245Z,9.96
2023-04-01T19:13:04.759Z,9.96
2023-04-01T19:18:28.343Z,9.68
2023-04-01T19:24:05.486Z,9.43
2023-04-01T19:29:27.243Z,9.47
2023-04-01T19:34:46.206Z,9.68
2023-04-01T19:39:48.661Z,9.78
2023-04-01T19:44:57.142Z,9.75
2023-04-01T19:50:08.959Z,9.45
2023-04-01T19:55:47.389Z,9.47
2023-04-01T20:00:55.715Z,9.01
2023-04-01T20:06:12.760Z,9.13
2023-04-01T20:11:42.139Z,9.17
2023-04-01T20:16:52.953Z,9.18
2023-04-01T20:22:00.911Z,9.03
2023-04-01T20:27:16.522Z,9.12
2023-04-01T20:32:50.797Z,9.21
2023-04-01T20:38:07.018Z,9.35
2023-04-01T20:43:40.787Z,9.12
2023-04-01T20:48:50.771Z,8.81
2023-04-01T20:54:25.479Z,8.75
2023-04-01T20:59:59.979Z,8.75
2023-04-01T21:05:39.223Z,8.81
2023-04-01T21:10:57.951Z,8.50
2023-04-01T21:16:24.924Z,8.52
2023-04-01T21:21:49.082Z,8.51
2023-04-01T21:27:17.842Z,8.71
2023-04-01T21:32:39.659Z,8.72
2023-04-01T21:37:42.077Z,8.33
2023-04-01T21:43:10.669Z,8.49
2023-04-01T21:48:39.044Z,8.32
2023-04-01T21:54:22.651Z,8.36
2023-04-01T21:59:41.006Z,8.23
2023-04-01T22:04:54.577Z,8.31
2023-04-01T22:10:11.782Z,8.62
2023-04-01T22:15:46.029Z,8.63
2023-04-01T22:21:05.992Z,8.60
2023-04-01T22:26:38.883Z,8.44
2023-04-01T22:31:56.820Z,8.35
2023-04-01T22:37:14.774Z,8.54
2023-04-01T22:42:35.102Z,8.30
2023-04-01T22:47:52.647Z,8.23
2023-04-01T23:04:18.332Z,8.36
2023-04-01T23:09:26.926Z,8.58
2023-04-01T23:31:04.395Z,8.23
2023-04-01T23:41:36.051Z,8.51
2023-04-01T23:46:41.382Z,8.59
2023-04-01T23:51:56.691Z,8.43
2023-04-01T23:57:00.391Z,8.29
